createdAt,value
2022-11-17T00:02:10.850Z,1.15
2022-11-17T00:05:13.671Z,1.23
2022-11-17T00:08:16.077Z,1.00
2022-11-17T00:11:18.679Z,1.55
2022-11-17T00:14:33.358Z,1.02
2022-11-17T00:17:37.040Z,0.90
2022-11-17T00:20:59.281Z,1.40
2022-11-17T00:24:01.885Z,1.38
2022-11-17T00:27:04.773Z,1.20
2022-11-17T00:30:08.001Z,1.35
2022-11-17T00:33:29.780Z,0.90
2022-11-17T00:36:41.547Z,1.05
2022-11-17T00:39:44.272Z,0.95
2022-11-17T00:42:47.260Z,1.25
2022-11-17T00:45:49.695Z,0.80
2022-11-17T00:48:51.899Z,1.00
2022-11-17T00:51:55.444Z,0.88
2022-11-17T00:54:57.455Z,1.00
2022-11-17T00:57:59.931Z,1.40
2022-11-17T01:01:02.894Z,0.95
2022-11-17T01:04:06.362Z,0.98
2022-11-17T01:07:08.643Z,1.02
2022-11-17T01:10:11.869Z,1.00
2022-11-17T01:13:14.130Z,1.38
2022-11-17T01:16:19.311Z,1.10
2022-11-17T01:19:23.509Z,1.45
2022-11-17T01:22:26.131Z,1.30
2022-11-17T01:25:28.232Z,1.17
2022-11-17T01:28:30.928Z,1.10
2022-11-17T01:31:38.307Z,1.38
2022-11-17T01:34:41.932Z,0.93
2022-11-17T01:37:44.011Z,0.90
2022-11-17T01:40:47.959Z,0.90
2022-11-17T01:43:53.329Z,0.93
2022-11-17T01:47:00.634Z,0.98
2022-11-17T01:50:09.105Z,1.33
2022-11-17T01:53:15.700Z,1.00
2022-11-17T01:56:24.443Z,1.20
2022-11-17T01:59:43.418Z,0.90
2022-11-17T02:02:46.483Z,0.95
2022-11-17T02:05:55.984Z,0.90
2022-11-17T02:08:59.145Z,0.80
2022-11-17T02:12:03.439Z,0.80
2022-11-17T02:15:06.404Z,0.88
2022-11-17T02:18:09.126Z,0.90
2022-11-17T02:21:23.442Z,1.02
2022-11-17T02:24:54.069Z,0.82
2022-11-17T02:27:58.941Z,0.70
2022-11-17T02:31:23.844Z,0.80
2022-11-17T02:34:42.193Z,0.73
2022-11-17T02:38:12.621Z,0.90
2022-11-17T02:41:32.242Z,0.98
2022-11-17T02:44:48.364Z,0.80
2022-11-17T02:47:53.941Z,0.80
2022-11-17T02:50:58.753Z,0.82
2022-11-17T02:57:04.783Z,0.60
2022-11-17T03:00:09.177Z,0.73
2022-11-17T03:03:34.847Z,0.60
2022-11-17T03:07:00.901Z,0.85
2022-11-17T03:10:15.083Z,1.13
2022-11-17T03:13:40.767Z,0.73
2022-11-17T03:17:01.687Z,0.73
2022-11-17T03:20:19.237Z,0.85
2022-11-17T03:23:34.712Z,0.80
2022-11-17T03:26:43.168Z,0.80
2022-11-17T03:29:50.587Z,0.80
2022-11-17T03:32:56.839Z,0.82
2022-11-17T03:36:07.306Z,0.75
2022-11-17T03:39:18.426Z,0.70
2022-11-17T03:42:20.830Z,0.70
2022-11-17T03:45:27.637Z,0.88
2022-11-17T03:48:53.362Z,0.70
2022-11-17T03:51:56.076Z,0.70
2022-11-17T03:54:59.145Z,0.50
2022-11-17T03:58:08.594Z,0.60
2022-11-17T04:01:11.714Z,0.82
2022-11-17T04:04:18.530Z,0.50
2022-11-17T04:07:21.155Z,0.60
2022-11-17T04:10:26.923Z,0.77
2022-11-17T04:13:49.626Z,0.98
2022-11-17T04:16:52.076Z,0.65
2022-11-17T04:19:54.960Z,0.60
2022-11-17T04:23:11.769Z,0.50
2022-11-17T04:26:32.784Z,0.77
2022-11-17T04:29:35.148Z,0.60
2022-11-17T04:32:37.716Z,0.70
2022-11-17T04:35:39.753Z,0.70
2022-11-17T04:38:54.388Z,0.80
2022-11-17T04:42:03.472Z,0.73
2022-11-17T04:45:06.234Z,0.82
2022-11-17T04:48:08.161Z,0.60
2022-11-17T04:51:11.080Z,0.60
2022-11-17T04:54:19.999Z,0.90
2022-11-17T04:57:22.849Z,1.77
2022-11-17T05:00:26.168Z,0.57
2022-11-17T05:03:28.923Z,0.67
2022-11-17T05:06:37.086Z,0.73
2022-11-17T05:09:41.778Z,0.68
2022-11-17T05:13:04.720Z,0.52
2022-11-17T05:16:27.108Z,0.60
2022-11-17T05:19:31.257Z,0.88
2022-11-17T05:25:54.566Z,0.60
2022-11-17T05:29:00.339Z,0.80
2022-11-17T05:32:02.185Z,0.70
2022-11-17T05:35:05.323Z,0.98
2022-11-17T05:38:07.643Z,0.50
2022-11-17T05:41:09.855Z,0.90
2022-11-17T05:44:12.534Z,0.50
2022-11-17T05:47:15.037Z,0.60
2022-11-17T05:50:17.814Z,0.50
2022-11-17T05:53:21.988Z,0.63
2022-11-17T05:56:41.655Z,0.60
2022-11-17T05:59:53.570Z,0.65
2022-11-17T06:03:09.544Z,0.80
2022-11-17T06:06:12.091Z,0.63
2022-11-17T06:09:15.942Z,0.73
2022-11-17T06:12:18.770Z,0.50
2022-11-17T06:15:21.545Z,0.50
2022-11-17T06:18:30.526Z,0.60
2022-11-17T06:22:04.475Z,0.80
2022-11-17T06:24:57.960Z,0.50
2022-11-17T06:28:04.344Z,0.70
2022-11-17T06:31:07.144Z,0.63
2022-11-17T06:34:10.303Z,0.65
2022-11-17T06:37:12.415Z,0.85
2022-11-17T06:40:15.223Z,0.60
2022-11-17T06:43:17.445Z,0.52
2022-11-17T06:46:20.775Z,0.80
2022-11-17T06:49:23.066Z,0.98
2022-11-17T06:52:26.890Z,0.73
2022-11-17T06:55:30.099Z,0.52
2022-11-17T06:58:33.068Z,0.70
2022-11-17T07:01:37.053Z,0.60
2022-11-17T07:04:39.496Z,0.70
2022-11-17T07:07:41.592Z,0.60
2022-11-17T07:10:49.176Z,0.80
2022-11-17T07:13:51.770Z,0.60
2022-11-17T07:16:55.944Z,0.60
2022-11-17T07:19:58.399Z,0.60
2022-11-17T07:23:01.318Z,0.65
2022-11-17T07:26:04.598Z,0.90
2022-11-17T07:29:07.196Z,0.60
2022-11-17T07:32:14.144Z,0.68
2022-11-17T07:35:17.959Z,0.80
2022-11-17T07:38:20.144Z,0.70
2022-11-17T07:41:23.122Z,0.88
2022-11-17T07:44:25.233Z,0.60
2022-11-17T07:47:28.027Z,0.82
2022-11-17T07:50:30.664Z,0.70
2022-11-17T07:53:35.139Z,0.60
2022-11-17T07:56:37.637Z,0.70
2022-11-17T07:59:40.591Z,0.45
2022-11-17T08:02:42.803Z,0.80
2022-11-17T08:05:45.493Z,0.47
2022-11-17T08:08:49.903Z,0.40
2022-11-17T08:11:52.407Z,0.80
2022-11-17T08:14:55.251Z,0.85
2022-11-17T08:17:59.884Z,0.80
2022-11-17T08:21:06.186Z,0.50
2022-11-17T08:24:08.831Z,0.73
2022-11-17T08:27:11.472Z,0.57
2022-11-17T08:30:14.322Z,0.60
2022-11-17T08:33:16.362Z,0.77
2022-11-17T08:36:22.851Z,0.60
2022-11-17T08:39:42.792Z,0.47
2022-11-17T08:42:46.250Z,0.73
2022-11-17T08:45:48.895Z,0.52
2022-11-17T08:48:56.950Z,0.43
2022-11-17T08:51:59.413Z,0.57
2022-11-17T08:55:02.699Z,0.52
2022-11-17T08:58:04.759Z,0.68
2022-11-17T09:01:09.488Z,0.50
2022-11-17T09:07:13.986Z,0.63
2022-11-17T09:10:16.382Z,0.50
2022-11-17T09:13:19.498Z,0.40
2022-11-17T09:16:24.096Z,0.50
2022-11-17T09:19:26.908Z,0.55
2022-11-17T09:22:29.155Z,0.55
2022-11-17T09:25:32.180Z,0.50
2022-11-17T09:28:34.686Z,0.60
2022-11-17T09:31:37.832Z,0.60
2022-11-17T09:34:39.884Z,0.50
2022-11-17T09:37:42.352Z,0.50
2022-11-17T09:40:45.326Z,0.63
2022-11-17T09:44:02.441Z,0.55
2022-11-17T09:47:23.470Z,0.60
2022-11-17T09:50:37.522Z,0.47
2022-11-17T09:54:10.834Z,0.33
2022-11-17T09:57:34.257Z,0.40
2022-11-17T10:00:37.902Z,0.50
2022-11-17T10:03:45.498Z,0.57
2022-11-17T10:06:50.796Z,0.50
2022-11-17T10:09:55.583Z,0.50
2022-11-17T10:12:58.988Z,0.38
2022-11-17T10:16:05.299Z,0.50
2022-11-17T10:19:15.590Z,0.52
2022-11-17T10:22:35.633Z,0.60
2022-11-17T10:25:42.127Z,0.57
2022-11-17T10:28:45.007Z,0.50
2022-11-17T10:31:47.121Z,0.50
2022-11-17T10:34:49.472Z,0.28
2022-11-17T10:37:53.957Z,0.50
2022-11-17T10:40:59.540Z,0.45
2022-11-17T10:44:22.757Z,0.40
2022-11-17T10:47:38.511Z,0.63
2022-11-17T10:50:51.943Z,0.55
2022-11-17T10:54:16.777Z,0.87
2022-11-17T10:57:24.552Z,0.40
2022-11-17T11:00:32.807Z,0.77
2022-11-17T11:03:35.910Z,0.35
2022-11-17T11:07:14.986Z,0.50
2022-11-17T11:10:31.963Z,0.75
2022-11-17T11:13:59.154Z,0.45
2022-11-17T11:17:10.528Z,0.57
2022-11-17T11:20:15.770Z,0.77
2022-11-17T11:23:20.830Z,0.60
2022-11-17T11:26:33.274Z,0.50
2022-11-17T11:29:44.401Z,0.57
2022-11-17T11:33:01.399Z,0.52
2022-11-17T11:36:26.776Z,0.65
2022-11-17T11:40:15.573Z,0.65
2022-11-17T11:43:49.258Z,0.63
2022-11-17T11:47:01.132Z,0.80
2022-11-17T11:50:16.228Z,0.60
2022-11-17T11:53:43.446Z,0.65
2022-11-17T11:56:48.513Z,0.70
2022-11-17T12:00:05.080Z,0.98
2022-11-17T12:03:16.089Z,0.88
2022-11-17T12:06:43.604Z,1.13
2022-11-17T12:09:54.569Z,0.60
2022-11-17T12:12:57.581Z,0.90
2022-11-17T12:16:40.390Z,0.80
2022-11-17T12:19:57.183Z,0.70
2022-11-17T12:23:37.815Z,0.85
2022-11-17T12:26:40.585Z,0.77
2022-11-17T12:29:47.649Z,0.93
2022-11-17T12:32:54.529Z,0.85
2022-11-17T12:36:31.139Z,0.80
2022-11-17T12:39:54.972Z,0.70
2022-11-17T12:43:34.677Z,0.73
2022-11-17T12:46:37.320Z,0.50
2022-11-17T12:49:57.719Z,1.05
2022-11-17T12:53:00.264Z,0.63
2022-11-17T12:56:23.758Z,0.90
2022-11-17T12:59:54.696Z,1.00
2022-11-17T13:03:10.519Z,0.70
2022-11-17T13:09:37.481Z,0.50
2022-11-17T13:12:40.102Z,0.50
2022-11-17T13:15:43.102Z,0.47
2022-11-17T13:18:48.129Z,0.47
2022-11-17T13:21:58.827Z,1.02
2022-11-17T13:25:13.352Z,0.82
2022-11-17T13:28:27.239Z,0.63
2022-11-17T13:31:30.217Z,0.55
2022-11-17T13:34:33.196Z,0.88
2022-11-17T13:37:35.766Z,0.43
2022-11-17T13:40:49.189Z,0.70
2022-11-17T13:43:53.283Z,0.57
2022-11-17T13:46:57.003Z,0.80
2022-11-17T13:50:29.511Z,0.60
2022-11-17T13:53:33.471Z,0.70
2022-11-17T13:56:46.506Z,0.65
2022-11-17T13:59:55.218Z,0.60
2022-11-17T14:03:03.440Z,0.57
2022-11-17T14:06:13.421Z,0.47
2022-11-17T14:09:18.928Z,0.55
2022-11-17T14:12:21.809Z,0.70
2022-11-17T14:15:27.302Z,0.63
2022-11-17T14:18:41.927Z,0.68
2022-11-17T14:22:08.890Z,0.60
2022-11-17T14:25:17.504Z,0.57
2022-11-17T14:28:23.452Z,0.60
2022-11-17T14:31:25.515Z,0.73
2022-11-17T14:34:28.548Z,0.40
2022-11-17T14:37:32.298Z,0.60
2022-11-17T14:40:35.273Z,0.65
2022-11-17T14:43:37.491Z,0.55
2022-11-17T14:46:41.687Z,0.50
2022-11-17T14:49:43.800Z,0.50
2022-11-17T14:52:47.040Z,0.55
2022-11-17T14:55:49.398Z,0.50
2022-11-17T14:58:58.513Z,0.73
2022-11-17T15:02:00.602Z,0.80
2022-11-17T15:05:04.380Z,0.50
2022-11-17T15:08:06.397Z,0.57
2022-11-17T15:11:14.257Z,0.50
2022-11-17T15:14:16.613Z,0.88
2022-11-17T15:17:19.705Z,0.63
2022-11-17T15:20:21.690Z,0.98
2022-11-17T15:23:24.538Z,0.85
2022-11-17T15:26:26.683Z,0.60
2022-11-17T15:29:29.873Z,0.60
2022-11-17T15:32:32.431Z,0.40
2022-11-17T15:35:38.779Z,0.60
2022-11-17T15:38:41.639Z,0.82
2022-11-17T15:41:45.812Z,0.90
2022-11-17T15:44:48.250Z,0.50
2022-11-17T15:47:54.560Z,0.60
2022-11-17T15:51:03.296Z,0.73
2022-11-17T15:54:06.503Z,0.70
2022-11-17T15:57:10.192Z,0.57
2022-11-17T16:00:13.915Z,0.47
2022-11-17T16:03:16.064Z,0.57
2022-11-17T16:06:19.152Z,0.60
2022-11-17T16:09:21.716Z,0.55
2022-11-17T16:12:24.751Z,0.70
2022-11-17T16:15:27.298Z,0.80
2022-11-17T16:18:55.081Z,0.60
2022-11-17T16:22:02.058Z,0.60
2022-11-17T16:28:14.772Z,0.70
2022-11-17T16:31:25.783Z,0.77
2022-11-17T16:34:28.026Z,0.60
2022-11-17T16:37:30.936Z,0.60
2022-11-17T16:40:36.116Z,0.95
2022-11-17T16:43:44.349Z,0.80
2022-11-17T16:46:48.308Z,0.77
2022-11-17T16:49:51.886Z,1.00
2022-11-17T16:52:54.446Z,1.10
2022-11-17T16:56:03.735Z,1.13
2022-11-17T16:59:06.058Z,1.10
2022-11-17T17:02:16.307Z,1.00
2022-11-17T17:05:26.553Z,1.30
2022-11-17T17:08:29.144Z,1.08
2022-11-17T17:11:32.650Z,1.20
2022-11-17T17:14:35.092Z,1.23
2022-11-17T17:17:37.053Z,1.13
2022-11-17T17:20:40.271Z,0.90
2022-11-17T17:23:42.518Z,1.15
2022-11-17T17:26:45.568Z,1.20
2022-11-17T17:29:47.912Z,1.13
2022-11-17T17:32:50.679Z,1.02
2022-11-17T17:35:52.899Z,1.05
2022-11-17T17:38:57.703Z,1.27
2022-11-17T17:41:59.796Z,1.08
2022-11-17T17:45:02.786Z,1.30
2022-11-17T17:48:05.875Z,1.30
2022-11-17T17:51:11.715Z,1.25
2022-11-17T17:54:19.199Z,1.13
2022-11-17T17:57:22.200Z,1.20
2022-11-17T18:00:24.546Z,1.30
2022-11-17T18:03:26.962Z,1.20
2022-11-17T18:06:29.336Z,1.17
2022-11-17T18:09:32.012Z,1.20
2022-11-17T18:12:34.100Z,1.10
2022-11-17T18:15:39.723Z,1.00
2022-11-17T18:18:44.506Z,1.08
2022-11-17T18:21:48.011Z,1.17
2022-11-17T18:24:49.895Z,1.05
2022-11-17T18:27:52.432Z,1.10
2022-11-17T18:30:54.422Z,1.10
2022-11-17T18:34:02.642Z,1.00
2022-11-17T18:37:04.577Z,0.90
2022-11-17T18:40:07.698Z,1.05
2022-11-17T18:43:09.743Z,1.10
2022-11-17T18:46:16.857Z,1.00
2022-11-17T18:49:19.872Z,1.20
2022-11-17T18:52:24.885Z,0.80
2022-11-17T18:55:30.832Z,1.23
2022-11-17T18:58:33.322Z,0.90
2022-11-17T19:01:35.387Z,0.90
2022-11-17T19:04:38.791Z,1.40
2022-11-17T19:07:40.869Z,1.20
2022-11-17T19:10:54.378Z,0.80
2022-11-17T19:13:56.633Z,0.90
2022-11-17T19:16:59.018Z,0.98
2022-11-17T19:20:01.565Z,0.90
2022-11-17T19:23:05.049Z,1.23
2022-11-17T19:26:09.619Z,0.93
2022-11-17T19:29:16.654Z,0.70
2022-11-17T19:32:19.229Z,0.93
2022-11-17T19:35:22.936Z,1.30
2022-11-17T19:38:25.226Z,1.00
2022-11-17T19:41:33.626Z,1.05
2022-11-17T19:44:35.989Z,0.90
2022-11-17T19:47:38.729Z,0.90
2022-11-17T19:50:40.782Z,1.00
2022-11-17T19:53:43.507Z,1.10
2022-11-17T19:56:45.413Z,1.10
2022-11-17T19:59:48.339Z,0.98
2022-11-17T20:02:52.119Z,1.17
2022-11-17T20:05:59.777Z,1.10
2022-11-17T20:09:06.207Z,1.08
2022-11-17T20:12:08.623Z,1.13
2022-11-17T20:15:27.095Z,1.15
2022-11-17T20:18:33.871Z,1.20
2022-11-17T20:21:36.302Z,0.93
2022-11-17T20:24:39.165Z,1.15
2022-11-17T20:27:42.305Z,0.88
2022-11-17T20:30:45.050Z,1.08
2022-11-17T20:33:49.062Z,0.88
2022-11-17T20:36:51.603Z,1.38
2022-11-17T20:39:53.758Z,1.02
2022-11-17T20:42:56.105Z,0.95
2022-11-17T20:45:59.442Z,1.00
2022-11-17T20:49:02.020Z,1.20
2022-11-17T20:52:06.904Z,1.27
2022-11-17T20:55:11.811Z,0.90
2022-11-17T20:58:13.815Z,0.88
2022-11-17T21:01:19.188Z,1.10
2022-11-17T21:04:21.190Z,1.30
2022-11-17T21:07:23.892Z,1.27
2022-11-17T21:10:26.823Z,0.90
2022-11-17T21:13:31.647Z,1.00
2022-11-17T21:19:38.990Z,1.10
2022-11-17T21:22:41.341Z,0.88
2022-11-17T21:25:43.741Z,0.93
2022-11-17T21:28:46.818Z,1.20
2022-11-17T21:31:49.436Z,1.15
2022-11-17T21:34:51.884Z,0.98
2022-11-17T21:37:55.807Z,0.95
2022-11-17T21:41:06.748Z,0.75
2022-11-17T21:44:12.789Z,0.80
2022-11-17T21:47:15.059Z,1.25
2022-11-17T21:50:17.623Z,1.02
2022-11-17T21:53:20.360Z,1.10
2022-11-17T21:56:26.816Z,1.23
2022-11-17T21:59:29.044Z,1.00
2022-11-17T22:02:31.460Z,0.70
2022-11-17T22:05:34.183Z,1.00
2022-11-17T22:08:38.414Z,1.02
2022-11-17T22:11:40.520Z,0.82
2022-11-17T22:14:43.395Z,1.20
2022-11-17T22:17:45.669Z,0.80
2022-11-17T22:20:54.881Z,0.90
2022-11-17T22:23:57.900Z,1.08
2022-11-17T22:27:01.075Z,0.85
2022-11-17T22:30:04.242Z,0.80
2022-11-17T22:33:07.390Z,0.80
2022-11-17T22:36:10.166Z,1.23
2022-11-17T22:39:12.550Z,0.90
2022-11-17T22:42:15.486Z,0.90
2022-11-17T22:45:17.990Z,1.02
2022-11-17T22:48:19.899Z,0.85
2022-11-17T22:51:41.884Z,0.80
2022-11-17T22:54:44.505Z,0.90
2022-11-17T22:57:48.156Z,1.35
2022-11-17T23:00:53.067Z,1.23
2022-11-17T23:03:55.563Z,0.93
2022-11-17T23:06:57.590Z,1.20
2022-11-17T23:10:00.313Z,0.73
2022-11-17T23:13:02.617Z,0.90
2022-11-17T23:16:06.948Z,0.90
2022-11-17T23:19:12.889Z,0.50
2022-11-17T23:22:15.490Z,0.70
2022-11-17T23:25:17.643Z,0.90
2022-11-17T23:28:21.094Z,0.87
2022-11-17T23:31:23.397Z,0.70
2022-11-17T23:34:27.639Z,0.77
2022-11-17T23:37:29.570Z,1.05
2022-11-17T23:40:31.941Z,1.58
2022-11-17T23:43:34.519Z,1.00
2022-11-17T23:46:37.008Z,1.17
2022-11-17T23:49:39.071Z,0.85
2022-11-17T23:52:42.028Z,0.88
2022-11-17T23:55:44.203Z,1.30
2022-11-17T23:58:46.784Z,0.90
